Flight Track Log - Related Links

Times and Time Zones

All times are in EST time to prevent confusion due to time zone crossing. See the BOE6 flight status page for this flight to view local times or setup timezone preferences in your user account.

Time Position Orientation Groundspeed Altitude Reporting Facility
EST Latitude Longitude Course Direction KTS MPH feet Rate Location/Type
Wed 09:06:53 PM -19.8859 -159.9016 296° West  Level FlightAware Approximate
Wed 09:14:53 PM -18.8221 -159.3727 295° West  Level FlightAware Approximate
Wed 09:21:52 PM 13.6333 142.6333 90° East 490 564 41,000  Level Guam Center
Wed 09:22:53 PM 13.6333 142.7667 97° East 490 564 41,000  Level Guam Center
Wed 09:23:53 PM 13.6167 142.9167 97° East 490 564 41,000  Level Guam Center
Wed 09:24:53 PM 13.6000 143.0500 90° East 490 564 41,000  Level Guam Center
Wed 09:25:54 PM 13.6000 143.1833 97° East 490 564 41,000  Level Guam Center
Wed 09:26:54 PM 13.5833 143.3333 97° East 490 564 41,000  Level Guam Center
Wed 09:27:54 PM 13.5667 143.4667 97° East 490 564 41,000  Level Guam Center
Wed 09:28:54 PM 13.5500 143.6167 97° East 500 575 41,000  Level Guam Center
Wed 09:29:55 PM 13.5333 143.7667 97° East 480 552 41,000  Level Guam Center
Wed 09:30:55 PM 13.5167 143.9167 90° East 490 564 41,000  Level Guam Center
Wed 09:31:55 PM 13.5167 144.0500 97° East 490 564 41,000  Level Guam Center
Wed 09:32:56 PM 13.5000 144.2000 97° East 500 575 41,000  Level Guam Center
Wed 09:33:56 PM 13.4833 144.3333 97° East 490 564 41,000  Level Guam Center
Wed 09:34:56 PM 13.4667 144.4833 97° East 490 564 41,000  Level Guam Center
Wed 09:35:57 PM 13.4500 144.6167 97° East 490 564 41,000  Level Guam Center
Wed 09:36:57 PM 13.4333 144.7500 67° East 490 564 41,000  Level Guam Center
Wed 09:39:23 PM 13.5667 145.0667 69° East 410 472 41,000  Level Guam Center
Wed 09:40:23 PM 13.6167 145.2000 66° East 470 541 41,000  Level Guam Center
Wed 09:41:23 PM 13.6667 145.3167 76° East 470 541 41,000  Level Guam Center
Wed 09:42:24 PM 13.7000 145.4500 69° East 480 552 41,000  Level Guam Center
Wed 09:43:24 PM 13.7500 145.5833 66° East 480 552 41,000  Level Guam Center
Wed 09:44:24 PM 13.8000 145.7000 69° East 470 541 41,000  Level Guam Center
Wed 09:45:24 PM 13.8500 145.8333 76° East 470 541 41,000  Level Guam Center
Wed 09:46:25 PM 13.8833 145.9667 66° East 470 541 41,000  Level Guam Center
Wed 09:47:25 PM 13.9333 146.0833 69° East 480 552 41,000  Level Guam Center
Wed 09:48:26 PM 13.9833 146.2167 76° East 480 552 41,000  Level Guam Center
Wed 09:49:25 PM 14.0167 146.3500 360° North 472 543 41,000  Level Oakland Oceanic (ODAPS)
Wed 09:49:26 PM 14.0167 146.3500 66° East 470 541 41,000  Level Guam Center
Wed 09:50:26 PM 14.0667 146.4667 69° East 470 541 41,000  Level Guam Center
Wed 09:51:26 PM 14.1167 146.6000 74° East 480 552 41,000  Level Guam Center
Wed 09:52:27 PM 14.1500 146.7167 68° East 480 552 41,000  Level Guam Center
Wed 09:53:02 PM 14.1833 146.8000 71° East 473 544 41,000  Level Oakland Oceanic (ODAPS)
Wed 09:53:27 PM 14.2000 146.8500 69° East 470 541 41,000  Level Guam Center
Wed 09:54:27 PM 14.2500 146.9833 69° East 470 541 41,000  Level Guam Center
Wed 09:55:28 PM 14.3000 147.1167 74° East 470 541 41,000  Level Guam Center
Wed 09:56:28 PM 14.3333 147.2333 55° Northeast 470 541 41,000  Level Guam Center
Wed 09:56:46 PM 14.3667 147.2833 78° East 466 536 41,000  Level Oakland Oceanic (ODAPS)
Wed 09:57:28 PM 14.3833 147.3667 55° Northeast 470 541 41,000  Level Guam Center
Wed 09:58:29 PM 14.4500 147.4667 54° Northeast 460 529 41,000  Level Guam Center
Wed 09:59:29 PM 14.5333 147.5833 44° Northeast 460 529 41,000  Level Guam Center
Wed 09:59:33 PM 14.5500 147.6000 58° Northeast 469 540 41,000  Level Oakland Oceanic (ODAPS)
Wed 10:00:30 PM 14.6000 147.6833 63° Northeast 470 541 41,000  Level Guam Center
Wed 10:01:30 PM 14.6667 147.8167 55° Northeast 470 541 41,000  Level Guam Center
Wed 10:02:30 PM 14.7333 147.9167 59° Northeast 470 541 41,000  Level Guam Center
Wed 10:03:30 PM 14.8000 148.0333 59° Northeast 470 541 41,000  Level Guam Center
Wed 10:04:31 PM 14.8667 148.1500 59° Northeast 470 541 41,000  Level Guam Center
Wed 10:05:31 PM 14.9333 148.2667 59° Northeast 470 541 41,000  Level Guam Center
Wed 10:06:32 PM 15.0000 148.3833 61° Northeast 460 529 41,000  Level Guam Center
Wed 10:08:32 PM 15.1167 148.6000 58° Northeast 460 529 41,000  Level Guam Center
Wed 10:09:00 PM 15.1667 148.6833 63° Northeast 455 524 41,000  Level Oakland Oceanic (ODAPS)
Wed 10:09:33 PM 15.1833 148.7167 63° Northeast 460 529 41,000  Level Guam Center
Wed 10:09:51 PM 15.2167 148.7833 60° Northeast 469 540 41,000  Level Oakland Oceanic (ODAPS)
Wed 10:35:59 PM 16.8667 151.7833 61° Northeast 469 540 41,000  Level Oakland Oceanic (ODAPS)
Wed 11:02:25 PM 18.5333 154.9667 62° Northeast 469 540 41,000  Level Oakland Oceanic (ODAPS)
Wed 11:15:10 PM 19.3167 156.5167 62° Northeast 473 544 41,000  Level Oakland Oceanic (ODAPS)
Wed 11:29:05 PM 20.1667 158.2333 63° Northeast 471 542 41,000  Level Oakland Oceanic (ODAPS)
Wed 11:43:39 PM 21.0000 160.0000 47° Northeast 473 544 41,000  Level Oakland Oceanic (ODAPS)
Wed 11:55:53 PM 22.1167 161.2833 47° Northeast 478 550 41,000  Level Oakland Oceanic (ODAPS)
Thu 12:23:29 AM 24.5000 164.1000 48° Northeast 480 552 41,000  Level Oakland Oceanic (ODAPS)
Thu 12:49:24 AM 26.8500 167.1000 50° Northeast 491 565 41,000  Level Oakland Oceanic (ODAPS)
Thu 01:14:00 AM 29.0667 170.1500 62° Northeast 538 619 41,000  Level Oakland Oceanic (ODAPS)
Thu 01:15:51 AM 29.1833 170.4000 63° Northeast 516 594 41,000  Level Oakland Oceanic (ODAPS)
Thu 01:42:23 AM 30.8833 174.3667 65° Northeast 513 590 41,000  Level Oakland Oceanic (ODAPS)
Thu 02:09:22 AM 32.4500 178.4667 66° East 521 600 41,000  Level Oakland Oceanic (ODAPS)
Thu 02:18:49 AM 33.0000 -180.0000 67° East 518 596 41,000  Level Oakland Oceanic (ODAPS)
Thu 02:35:44 AM 33.9167 -177.2833 69° East 517 595 41,000  Level Oakland Oceanic (ODAPS)
Thu 03:02:23 AM 35.2333 -172.9167 71° East 529 609 41,000  Level Oakland Oceanic (ODAPS)
Thu 03:19:12 AM 36.0000 -170.0000 80° East 525 604 41,000  Level Oakland Oceanic (ODAPS)
Thu 03:29:03 AM 36.2500 -168.2000 81° East 525 604 41,000  Level Oakland Oceanic (ODAPS)
Thu 03:55:43 AM 36.7667 -163.2000 84° East 552 635 41,000  Level Oakland Oceanic (ODAPS)
Thu 04:12:39 AM 37.0000 -160.0000 94° East 538 619 41,000  Level Oakland Oceanic (ODAPS)
Thu 04:22:24 AM 36.8833 -158.1500 95° East 536 617 41,000  Level Oakland Oceanic (ODAPS)
Thu 04:49:04 AM 36.4167 -153.2333 98° East 534 615 41,000  Level Oakland Oceanic (ODAPS)
Thu 05:07:13 AM 36.0000 -150.0000 103° East 520 598 41,000  Level Oakland Oceanic (ODAPS)
Thu 05:15:43 AM 35.7167 -148.5500 104° East 508 585 41,000  Level Oakland Oceanic (ODAPS)
Thu 05:35:51 AM 35.0000 -145.2500 48° Northeast 478 550 41,000  Level Oakland Oceanic (ODAPS)
Thu 05:41:51 AM 35.5167 -144.5500 54° Northeast 478 550 41,000  Level Oakland Oceanic (ODAPS)
Thu 05:42:23 AM 35.5667 -144.4667 48° Northeast 473 544 41,000  Level Oakland Oceanic (ODAPS)
Thu 06:33:14 AM 39.8000 -138.1167 52° Northeast 469 540 41,000  Level Oakland Oceanic (ODAPS)
Thu 07:30:45 AM 44.1000 -129.9833 58° Northeast 489 563 41,000  Level Oakland Oceanic (ODAPS)
Thu 07:44:52 AM 45.2456 -127.3522 59° Northeast 479 551 41,000  Level Seattle Center
Thu 07:45:52 AM 45.3147 -127.1869 59° Northeast 484 557 41,000  Level Seattle Center
Thu 07:46:52 AM 45.3847 -127.0197 59° Northeast 489 563 41,000  Level Seattle Center
Thu 07:47:53 AM 45.4561 -126.8528 59° Northeast 492 566 41,000  Level Seattle Center
Thu 07:48:53 AM 45.5250 -126.6889 49° Northeast 492 566 41,000  Level Seattle Center
Thu 07:49:53 AM 45.6178 -126.5386 52° Northeast 515 593 41,000  Level Seattle Center
Thu 07:50:53 AM 45.6989 -126.3919 50° Northeast 484 557 41,000  Level Seattle Center
Thu 07:51:53 AM 45.7836 -126.2444 51° Northeast 485 558 41,000  Level Seattle Center
Thu 07:52:54 AM 45.8694 -126.0942 52° Northeast 486 559 41,000  Level Seattle Center
Thu 07:53:54 AM 45.9536 -125.9394 63° Northeast 490 564 41,000  Level Seattle Center
Thu 07:54:54 AM 46.0167 -125.7625 63° Northeast 496 571 41,000  Level Seattle Center
Thu 07:55:54 AM 46.0797 -125.5839 63° Northeast 500 575 41,000  Level Seattle Center
Thu 07:56:54 AM 46.1422 -125.4042 63° Northeast 502 578 41,000  Level Seattle Center
Thu 07:57:54 AM 46.2056 -125.2233 63° Northeast 504 580 41,000 -198 Level Seattle Center
Thu 07:58:55 AM 46.2678 -125.0436 64° Northeast 503 579 40,600 -694 Descending Seattle Center
Thu 07:59:55 AM 46.3236 -124.8753 63° Northeast 473 544 39,600 -1,200 Descending Seattle Center
Thu 08:00:55 AM 46.3786 -124.7156 63° Northeast 446 513 38,200 -1,600 Descending Seattle Center
Thu 08:01:55 AM 46.4356 -124.5497 59° Northeast 425 489 36,400 -1,550 Descending Seattle Center
Thu 08:02:55 AM 46.4914 -124.4161 50° Northeast 392 451 35,100 -2,331 Descending Seattle Center
Thu 08:03:56 AM 46.5614 -124.2967 50° Northeast 395 455 31,700 -2,529 Descending Seattle Center
Thu 08:04:56 AM 46.6319 -124.1750 49° Northeast 395 455 30,000 -1,750 Descending Seattle Center
Thu 08:05:56 AM 46.7003 -124.0597 49° Northeast 383 441 28,200 -1,850 Descending Seattle Center
Thu 08:06:56 AM 46.7650 -123.9497 49° Northeast 367 422 26,300 -1,950 Descending Seattle Center
Thu 08:07:56 AM 46.8253 -123.8472 50° Northeast 361 415 24,300 -2,291 Descending Seattle Center
Thu 08:08:46 AM 46.8844 -123.7442 51° Northeast 363 418 22,100 -2,262 Descending Seattle Center
Thu 08:08:57 AM 46.8894 -123.7350 47° Northeast 361 415 22,000 -1,500 Descending Seattle Center
Thu 08:08:58 AM 46.8956 -123.7256 49° Northeast 363 418 21,800 -2,000 Descending Seattle Center
Thu 08:09:57 AM 46.9528 -123.6275 52° Northeast 358 412 20,000 -2,100 Descending Seattle Center
Thu 08:09:58 AM 46.9639 -123.6064 50° Northeast 353 406 19,700 -2,226 Descending Seattle Center
Thu 08:10:59 AM 47.0231 -123.5044 50° Northeast 341 392 17,700 -1,613 Descending Seattle Center
Thu 08:11:57 AM 47.0719 -123.4189 50° Northeast 335 386 16,500 -1,574 Descending Seattle Center
Thu 08:12:00 AM 47.0833 -123.3986 50° Northeast 331 381 16,100 -1,800 Descending Seattle Center
Thu 08:12:57 AM 47.1300 -123.3178 49° Northeast 329 379 14,700 -2,000 Descending Seattle Center
Thu 08:13:06 AM 47.1486 -123.2864 51° Northeast 324 373 13,900 -2,164 Descending Seattle Center
Thu 08:13:58 AM 47.1858 -123.2189 50° Northeast 321 369 12,500 -1,967 Descending Seattle Center
Thu 08:14:07 AM 47.2056 -123.1847 50° Northeast 320 368 11,900 -2,200 Descending Seattle Center
Thu 08:14:58 AM 47.2522 -123.1022 49° Northeast 315 362 10,300 -1,800 Descending Seattle Center
Thu 08:15:07 AM 47.2614 -123.0869 51° Northeast 313 360 10,100 -300 Descending Seattle Center
Thu 08:15:58 AM 47.3067 -123.0039 45° Northeast 313 360 10,000 -98 Descending Seattle Center
Thu 08:16:08 AM 47.3167 -122.9889 50° Northeast 312 359 10,000 -400 Level Seattle Center
Thu 08:16:58 AM 47.3586 -122.9153 48° Northeast 292 336 9,600 -806 Descending Seattle Center
Thu 08:17:15 AM 47.3742 -122.8897 52° Northeast 276 318 9,100 -1,481 Descending Seattle Center
Thu 08:18:15 AM 47.4211 -122.8022 50° Northeast 276 318 7,700 -1,269 Descending Seattle Center
Thu 08:18:59 AM 47.4550 -122.7428 50° Northeast 274 315 6,900 -1,279 Descending Seattle Center
Thu 08:19:16 AM 47.4719 -122.7125 51° Northeast 273 314 6,400 -1,300 Descending Seattle Center
Thu 08:19:59 AM 47.5017 -122.6586 51° Northeast 270 311 5,600 -1,082 Descending Seattle Center
Thu 08:20:17 AM 47.5178 -122.6289 41° Northeast 266 306 5,300 -700 Descending Seattle Center
Thu 08:20:59 AM 47.5536 -122.5831 26° Northeast 249 287 4,900 -500 Descending Seattle Center
Thu 08:21:17 AM 47.5717 -122.5697 27° Northeast 234 269 4,800 -500 Descending Seattle Center
Thu 08:21:59 AM 47.6092 -122.5411 30° Northeast 222 255 4,400 -590 Descending Seattle Center
Thu 08:22:18 AM 47.6256 -122.5272 32° Northeast 214 246 4,200 -590 Descending Seattle Center
Thu 08:23:00 AM 47.6572 -122.4978 48° Northeast 209 241 3,800 -500 Descending Seattle Center
Thu 08:23:18 AM 47.6672 -122.4814 88° East 184 212 3,700 -500 Descending Seattle Center
Thu 08:24:00 AM 47.6681 -122.4339 120° Southeast 179 206 3,300 -764 Descending Seattle Center
Thu 08:24:13 AM 47.6631 -122.4211 146° Southeast 174 200 3,000 -1,100 Descending Seattle Center
Thu 08:25:00 AM 47.6314 -122.3897 156° South 172 198 2,200 -984 Descending Seattle Center
Thu 08:25:14 AM 47.6228 -122.3842 148° Southeast 166 191 2,000 -800 Descending Seattle Center
Thu 08:26:00 AM 47.5975 -122.3606 144° Southeast 136 157 1,400 -800 Descending Seattle Center
Thu 08:26:14 AM 47.5903 -122.3528 153° Southeast 135 155 1,200 -689 Descending Seattle Center
Thu 08:27:01 AM 47.5656 -122.3339 154° Southeast 132 152 700 -689 Descending Seattle Center
Thu 08:27:15 AM 47.5603 -122.3300 154° Southeast 131 151 500 -857 Descending Seattle Center

Login

Don't have an account? Register now (free) for customized features, flight alerts, and more!